sensor_id;sensor_type;location;lat;lon;timestamp;pressure;altitude;pressure_sealevel;temperature;humidity
23118;BME280;11728;50.624;6.014;2023-04-04T00:04:27;99405.59;;;1.02;72.98
23118;BME280;11728;50.624;6.014;2023-04-04T00:09:27;99403.81;;;1.01;73.02
23118;BME280;11728;50.624;6.014;2023-04-04T00:14:28;99402.16;;;1.03;72.51
23118;BME280;11728;50.624;6.014;2023-04-04T00:19:28;99393.53;;;1.04;71.86
23118;BME280;11728;50.624;6.014;2023-04-04T00:24:29;99386.47;;;1.00;71.89
23118;BME280;11728;50.624;6.014;2023-04-04T00:29:30;99395.97;;;0.98;71.82
23118;BME280;11728;50.624;6.014;2023-04-04T00:34:33;99386.09;;;0.88;72.46
23118;BME280;11728;50.624;6.014;2023-04-04T00:39:35;99383.28;;;0.82;72.87
23118;BME280;11728;50.624;6.014;2023-04-04T00:44:35;99376.97;;;0.74;72.89
23118;BME280;11728;50.624;6.014;2023-04-04T00:49:36;99379.44;;;0.71;73.23
23118;BME280;11728;50.624;6.014;2023-04-04T00:54:36;99369.84;;;0.69;73.33
23118;BME280;11728;50.624;6.014;2023-04-04T00:59:37;99372.41;;;0.67;72.95
23118;BME280;11728;50.624;6.014;2023-04-04T01:04:38;99380.03;;;0.63;72.98
23118;BME280;11728;50.624;6.014;2023-04-04T01:09:38;99372.88;;;0.56;73.09
23118;BME280;11728;50.624;6.014;2023-04-04T01:14:39;99368.34;;;0.50;73.26
23118;BME280;11728;50.624;6.014;2023-04-04T01:20:16;99375.31;;;0.51;73.67
23118;BME280;11728;50.624;6.014;2023-04-04T01:25:30;99387.28;;;0.46;73.61
23118;BME280;11728;50.624;6.014;2023-04-04T01:30:35;99387.16;;;0.43;72.97
23118;BME280;11728;50.624;6.014;2023-04-04T01:36:01;99388.81;;;0.41;73.41
23118;BME280;11728;50.624;6.014;2023-04-04T01:41:08;99390.72;;;0.45;72.35
23118;BME280;11728;50.624;6.014;2023-04-04T01:46:09;99400.28;;;0.46;72.27
23118;BME280;11728;50.624;6.014;2023-04-04T01:51:10;99401.97;;;0.46;71.99
23118;BME280;11728;50.624;6.014;2023-04-04T01:56:10;99394.91;;;0.42;71.96
23118;BME280;11728;50.624;6.014;2023-04-04T02:01:11;99390.50;;;0.39;71.70
23118;BME280;11728;50.624;6.014;2023-04-04T02:06:11;99384.94;;;0.29;72.43
23118;BME280;11728;50.624;6.014;2023-04-04T02:11:13;99390.84;;;0.25;72.29
23118;BME280;11728;50.624;6.014;2023-04-04T02:16:13;99394.03;;;0.16;72.56
23118;BME280;11728;50.624;6.014;2023-04-04T02:21:14;99384.34;;;0.12;72.39
23118;BME280;11728;50.624;6.014;2023-04-04T02:26:14;99384.03;;;0.03;73.32
23118;BME280;11728;50.624;6.014;2023-04-04T02:31:15;99385.47;;;-0.04;73.44
23118;BME280;11728;50.624;6.014;2023-04-04T02:36:15;99386.13;;;-0.10;73.71
23118;BME280;11728;50.624;6.014;2023-04-04T02:41:16;99389.38;;;-0.15;73.73
23118;BME280;11728;50.624;6.014;2023-04-04T02:46:16;99379.75;;;-0.19;74.20
23118;BME280;11728;50.624;6.014;2023-04-04T02:51:17;99370.88;;;-0.24;74.53
23118;BME280;11728;50.624;6.014;2023-04-04T02:56:17;99365.47;;;-0.30;74.93
23118;BME280;11728;50.624;6.014;2023-04-04T03:01:17;99355.75;;;-0.36;75.16
23118;BME280;11728;50.624;6.014;2023-04-04T03:06:18;99354.66;;;-0.42;75.75
23118;BME280;11728;50.624;6.014;2023-04-04T03:11:18;99347.38;;;-0.52;76.52
23118;BME280;11728;50.624;6.014;2023-04-04T03:16:20;99356.06;;;-0.52;76.67
23118;BME280;11728;50.624;6.014;2023-04-04T03:21:21;99364.56;;;-0.54;77.15
23118;BME280;11728;50.624;6.014;2023-04-04T03:26:21;99356.09;;;-0.50;77.44
23118;BME280;11728;50.624;6.014;2023-04-04T03:31:22;99368.25;;;-0.49;77.25
23118;BME280;11728;50.624;6.014;2023-04-04T03:36:22;99366.13;;;-0.59;77.41
23118;BME280;11728;50.624;6.014;2023-04-04T03:41:22;99359.13;;;-0.62;77.46
23118;BME280;11728;50.624;6.014;2023-04-04T03:46:23;99372.72;;;-0.67;77.58
23118;BME280;11728;50.624;6.014;2023-04-04T03:51:25;99363.69;;;-0.78;78.08
23118;BME280;11728;50.624;6.014;2023-04-04T03:56:26;99357.38;;;-0.84;79.29
23118;BME280;11728;50.624;6.014;2023-04-04T04:01:26;99364.81;;;-0.92;79.68
23118;BME280;11728;50.624;6.014;2023-04-04T04:06:27;99362.09;;;-0.96;79.81
23118;BME280;11728;50.624;6.014;2023-04-04T04:11:27;99367.09;;;-1.01;80.30
23118;BME280;11728;50.624;6.014;2023-04-04T04:16:28;99378.09;;;-1.06;80.77
23118;BME280;11728;50.624;6.014;2023-04-04T04:21:28;99371.75;;;-1.13;80.90
23118;BME280;11728;50.624;6.014;2023-04-04T04:26:29;99362.00;;;-1.20;81.32
23118;BME280;11728;50.624;6.014;2023-04-04T04:31:29;99362.91;;;-1.19;81.72
23118;BME280;11728;50.624;6.014;2023-04-04T04:36:30;99358.53;;;-1.20;81.60
23118;BME280;11728;50.624;6.014;2023-04-04T04:41:31;99353.28;;;-1.22;82.09
23118;BME280;11728;50.624;6.014;2023-04-04T04:46:32;99350.00;;;-1.18;81.44
23118;BME280;11728;50.624;6.014;2023-04-04T04:51:32;99350.00;;;-1.18;81.53
23118;BME280;11728;50.624;6.014;2023-04-04T04:56:32;99362.94;;;-1.18;81.13
23118;BME280;11728;50.624;6.014;2023-04-04T05:01:33;99365.28;;;-1.24;82.01
23118;BME280;11728;50.624;6.014;2023-04-04T05:06:33;99371.09;;;-1.29;81.88
23118;BME280;11728;50.624;6.014;2023-04-04T05:11:34;99375.28;;;-1.33;82.30
23118;BME280;11728;50.624;6.014;2023-04-04T05:16:34;99378.81;;;-1.31;82.60
23118;BME280;11728;50.624;6.014;2023-04-04T05:21:34;99379.00;;;-1.26;82.26
23118;BME280;11728;50.624;6.014;2023-04-04T05:26:35;99391.31;;;-1.21;82.08
23118;BME280;11728;50.624;6.014;2023-04-04T05:31:35;99391.31;;;-0.99;82.04
23118;BME280;11728;50.624;6.014;2023-04-04T05:36:36;99384.25;;;-0.37;80.91
23118;BME280;11728;50.624;6.014;2023-04-04T05:41:36;99374.03;;;-0.09;79.50
23118;BME280;11728;50.624;6.014;2023-04-04T05:46:37;99386.03;;;0.60;77.99
23118;BME280;11728;50.624;6.014;2023-04-04T05:51:38;99388.91;;;1.22;76.22
23118;BME280;11728;50.624;6.014;2023-04-04T05:56:38;99377.16;;;2.22;74.14
23118;BME280;11728;50.624;6.014;2023-04-04T06:01:38;99367.25;;;3.09;71.36
23118;BME280;11728;50.624;6.014;2023-04-04T06:06:39;99362.59;;;3.74;68.38
23118;BME280;11728;50.624;6.014;2023-04-04T06:11:40;99371.69;;;3.91;65.92
23118;BME280;11728;50.624;6.014;2023-04-04T06:16:40;99373.22;;;4.23;65.50
23118;BME280;11728;50.624;6.014;2023-04-04T06:21:40;99369.59;;;4.63;62.93
23118;BME280;11728;50.624;6.014;2023-04-04T06:26:41;99369.44;;;5.06;60.64
23118;BME280;11728;50.624;6.014;2023-04-04T06:31:41;99374.75;;;5.68;59.24
23118;BME280;11728;50.624;6.014;2023-04-04T06:36:42;99366.25;;;6.55;57.10
23118;BME280;11728;50.624;6.014;2023-04-04T06:41:42;99372.13;;;7.27;55.08
23118;BME280;11728;50.624;6.014;2023-04-04T06:46:43;99380.34;;;7.73;53.69
23118;BME280;11728;50.624;6.014;2023-04-04T06:51:43;99372.72;;;8.24;52.14
23118;BME280;11728;50.624;6.014;2023-04-04T06:56:44;99377.06;;;8.14;51.84
23118;BME280;11728;50.624;6.014;2023-04-04T07:01:44;99370.97;;;8.29;51.56
23118;BME280;11728;50.624;6.014;2023-04-04T07:06:45;99384.28;;;8.76;50.22
23118;BME280;11728;50.624;6.014;2023-04-04T07:11:45;99389.53;;;8.85;50.33
23118;BME280;11728;50.624;6.014;2023-04-04T07:16:45;99391.34;;;9.29;48.76
23118;BME280;11728;50.624;6.014;2023-04-04T07:21:46;99384.22;;;10.04;47.45
23118;BME280;11728;50.624;6.014;2023-04-04T07:26:47;99383.19;;;10.40;46.66
23118;BME280;11728;50.624;6.014;2023-04-04T07:31:47;99384.91;;;10.44;45.98
23118;BME280;11728;50.624;6.014;2023-04-04T07:36:47;99377.72;;;10.78;45.12
23118;BME280;11728;50.624;6.014;2023-04-04T07:41:48;99371.13;;;11.32;44.50
23118;BME280;11728;50.624;6.014;2023-04-04T07:46:48;99370.03;;;11.58;43.33
23118;BME280;11728;50.624;6.014;2023-04-04T07:51:49;99366.53;;;11.56;42.79
23118;BME280;11728;50.624;6.014;2023-04-04T07:56:50;99368.59;;;12.13;41.89
23118;BME280;11728;50.624;6.014;2023-04-04T08:01:50;99367.78;;;12.74;41.39
23118;BME280;11728;50.624;6.014;2023-04-04T08:06:51;99358.41;;;13.62;39.53
23118;BME280;11728;50.624;6.014;2023-04-04T08:11:52;99362.03;;;14.03;37.84
23118;BME280;11728;50.624;6.014;2023-04-04T08:16:52;99362.44;;;13.82;36.29
23118;BME280;11728;50.624;6.014;2023-04-04T08:21:53;99361.34;;;13.45;35.43
23118;BME280;11728;50.624;6.014;2023-04-04T08:26:53;99362.41;;;13.83;34.73
23118;BME280;11728;50.624;6.014;2023-04-04T08:31:54;99371.44;;;13.75;34.72
23118;BME280;11728;50.624;6.014;2023-04-04T08:36:55;99352.56;;;15.12;33.53
23118;BME280;11728;50.624;6.014;2023-04-04T08:42:03;99354.19;;;15.55;32.22
23118;BME280;11728;50.624;6.014;2023-04-04T08:47:04;99349.31;;;15.38;31.67
23118;BME280;11728;50.624;6.014;2023-04-04T08:52:10;99336.78;;;15.42;31.47
23118;BME280;11728;50.624;6.014;2023-04-04T08:57:11;99337.03;;;16.59;31.41
23118;BME280;11728;50.624;6.014;2023-04-04T09:07:52;99331.91;;;17.09;30.04
23118;BME280;11728;50.624;6.014;2023-04-04T09:12:55;99343.25;;;16.89;29.09
23118;BME280;11728;50.624;6.014;2023-04-04T09:17:55;99330.06;;;17.11;28.47
23118;BME280;11728;50.624;6.014;2023-04-04T09:22:56;99327.75;;;17.28;28.48
23118;BME280;11728;50.624;6.014;2023-04-04T09:27:56;99336.16;;;17.15;28.59
23118;BME280;11728;50.624;6.014;2023-04-04T09:33:05;99337.09;;;17.41;28.18
23118;BME280;11728;50.624;6.014;2023-04-04T09:38:06;99324.16;;;18.05;27.17
23118;BME280;11728;50.624;6.014;2023-04-04T09:43:07;99329.38;;;17.84;27.65
23118;BME280;11728;50.624;6.014;2023-04-04T09:48:08;99325.34;;;18.21;28.01
23118;BME280;11728;50.624;6.014;2023-04-04T09:53:15;99319.03;;;18.69;27.72
23118;BME280;11728;50.624;6.014;2023-04-04T09:58:18;99323.47;;;18.25;26.97
23118;BME280;11728;50.624;6.014;2023-04-04T10:03:20;99330.25;;;18.09;27.62
23118;BME280;11728;50.624;6.014;2023-04-04T10:08:22;99323.13;;;18.56;27.81
23118;BME280;11728;50.624;6.014;2023-04-04T10:13:26;99324.25;;;18.95;27.10
23118;BME280;11728;50.624;6.014;2023-04-04T10:18:31;99320.31;;;18.82;27.46
23118;BME280;11728;50.624;6.014;2023-04-04T10:23:32;99325.50;;;19.08;27.67
23118;BME280;11728;50.624;6.014;2023-04-04T10:28:34;99320.03;;;19.34;26.64
23118;BME280;11728;50.624;6.014;2023-04-04T10:38:50;99313.50;;;19.81;26.77
23118;BME280;11728;50.624;6.014;2023-04-04T10:43:55;99312.28;;;19.88;26.54
23118;BME280;11728;50.624;6.014;2023-04-04T10:49:00;99313.50;;;19.61;26.26
23118;BME280;11728;50.624;6.014;2023-04-04T10:54:01;99302.13;;;19.76;26.05
23118;BME280;11728;50.624;6.014;2023-04-04T10:59:12;99285.25;;;19.94;25.50
23118;BME280;11728;50.624;6.014;2023-04-04T11:04:17;99278.41;;;19.87;25.82
23118;BME280;11728;50.624;6.014;2023-04-04T11:09:49;99275.31;;;20.72;24.93
23118;BME280;11728;50.624;6.014;2023-04-04T11:14:56;99276.84;;;20.21;24.62
23118;BME280;11728;50.624;6.014;2023-04-04T11:19:58;99268.59;;;21.00;24.35
23118;BME280;11728;50.624;6.014;2023-04-04T11:24:59;99258.13;;;21.65;24.55
23118;BME280;11728;50.624;6.014;2023-04-04T11:30:11;99263.09;;;21.56;24.35
23118;BME280;11728;50.624;6.014;2023-04-04T11:35:12;99266.19;;;21.30;24.74
23118;BME280;11728;50.624;6.014;2023-04-04T11:40:13;99268.09;;;20.54;25.02
23118;BME280;11728;50.624;6.014;2023-04-04T11:45:18;99257.97;;;20.61;24.93
23118;BME280;11728;50.624;6.014;2023-04-04T11:50:18;99256.03;;;20.08;24.89
23118;BME280;11728;50.624;6.014;2023-04-04T11:55:20;99241.69;;;20.09;24.82
23118;BME280;11728;50.624;6.014;2023-04-04T12:00:30;99244.81;;;20.36;24.47
23118;BME280;11728;50.624;6.014;2023-04-04T12:05:31;99231.13;;;20.42;24.67
23118;BME280;11728;50.624;6.014;2023-04-04T12:10:35;99231.00;;;20.07;25.34
23118;BME280;11728;50.624;6.014;2023-04-04T12:15:36;99225.50;;;20.10;24.77
23118;BME280;11728;50.624;6.014;2023-04-04T12:20:37;99223.00;;;19.05;25.34
23118;BME280;11728;50.624;6.014;2023-04-04T12:25:39;99202.75;;;19.60;25.12
23118;BME280;11728;50.624;6.014;2023-04-04T12:30:43;99207.88;;;19.45;25.43
23118;BME280;11728;50.624;6.014;2023-04-04T12:35:52;99205.59;;;19.96;24.72
23118;BME280;11728;50.624;6.014;2023-04-04T12:40:52;99218.75;;;19.42;25.03
23118;BME280;11728;50.624;6.014;2023-04-04T12:45:54;99197.44;;;19.99;25.04
23118;BME280;11728;50.624;6.014;2023-04-04T12:50:59;99188.25;;;20.22;25.03
23118;BME280;11728;50.624;6.014;2023-04-04T12:56:01;99189.31;;;20.37;24.68
23118;BME280;11728;50.624;6.014;2023-04-04T13:01:03;99179.00;;;20.65;24.78
23118;BME280;11728;50.624;6.014;2023-04-04T13:06:14;99181.59;;;21.03;24.82
23118;BME280;11728;50.624;6.014;2023-04-04T13:11:14;99179.28;;;20.95;25.26
23118;BME280;11728;50.624;6.014;2023-04-04T13:16:32;99187.13;;;20.63;24.77
23118;BME280;11728;50.624;6.014;2023-04-04T13:21:33;99187.75;;;20.14;24.85
23118;BME280;11728;50.624;6.014;2023-04-04T13:26:34;99173.00;;;20.41;25.50
23118;BME280;11728;50.624;6.014;2023-04-04T13:31:35;99171.28;;;19.84;25.61
23118;BME280;11728;50.624;6.014;2023-04-04T13:36:35;99156.03;;;19.84;25.70
23118;BME280;11728;50.624;6.014;2023-04-04T13:41:35;99150.13;;;19.58;25.75
23118;BME280;11728;50.624;6.014;2023-04-04T13:46:36;99143.44;;;19.48;26.42
23118;BME280;11728;50.624;6.014;2023-04-04T13:51:36;99129.81;;;19.72;25.85
23118;BME280;11728;50.624;6.014;2023-04-04T13:56:37;99135.19;;;19.13;25.82
23118;BME280;11728;50.624;6.014;2023-04-04T14:01:38;99125.22;;;18.75;26.28
23118;BME280;11728;50.624;6.014;2023-04-04T14:06:39;99122.00;;;18.46;26.89
23118;BME280;11728;50.624;6.014;2023-04-04T14:11:39;99120.38;;;18.42;26.99
23118;BME280;11728;50.624;6.014;2023-04-04T14:16:40;99111.53;;;18.40;26.98
23118;BME280;11728;50.624;6.014;2023-04-04T14:21:41;99120.09;;;17.82;26.99
23118;BME280;11728;50.624;6.014;2023-04-04T14:26:41;99109.19;;;17.65;27.88
23118;BME280;11728;50.624;6.014;2023-04-04T14:31:41;99095.25;;;17.80;27.68
23118;BME280;11728;50.624;6.014;2023-04-04T14:36:42;99099.25;;;17.69;28.08
23118;BME280;11728;50.624;6.014;2023-04-04T14:41:42;99103.47;;;17.28;28.52
23118;BME280;11728;50.624;6.014;2023-04-04T14:46:43;99094.25;;;17.11;28.36
23118;BME280;11728;50.624;6.014;2023-04-04T14:51:43;99088.56;;;16.47;28.77
23118;BME280;11728;50.624;6.014;2023-04-04T14:56:44;99093.75;;;16.50;28.98
23118;BME280;11728;50.624;6.014;2023-04-04T15:01:44;99089.69;;;16.11;29.43
23118;BME280;11728;50.624;6.014;2023-04-04T15:06:45;99080.88;;;16.09;29.37
23118;BME280;11728;50.624;6.014;2023-04-04T15:11:46;99085.88;;;15.63;29.81
23118;BME280;11728;50.624;6.014;2023-04-04T15:16:46;99084.34;;;15.56;31.47
23118;BME280;11728;50.624;6.014;2023-04-04T15:21:47;99073.31;;;15.68;30.09
23118;BME280;11728;50.624;6.014;2023-04-04T15:26:47;99077.97;;;15.32;30.55
23118;BME280;11728;50.624;6.014;2023-04-04T15:31:48;99079.75;;;14.67;30.27
23118;BME280;11728;50.624;6.014;2023-04-04T15:36:48;99080.34;;;14.45;30.78
23118;BME280;11728;50.624;6.014;2023-04-04T15:41:51;99069.88;;;14.03;30.73
23118;BME280;11728;50.624;6.014;2023-04-04T15:46:51;99079.03;;;13.90;30.85
23118;BME280;11728;50.624;6.014;2023-04-04T15:51:51;99068.03;;;13.69;30.99
23118;BME280;11728;50.624;6.014;2023-04-04T15:56:52;99067.09;;;13.32;31.59
23118;BME280;11728;50.624;6.014;2023-04-04T16:01:52;99069.75;;;13.32;31.35
23118;BME280;11728;50.624;6.014;2023-04-04T16:06:52;99061.72;;;13.35;31.00
23118;BME280;11728;50.624;6.014;2023-04-04T16:11:53;99065.41;;;13.28;31.49
23118;BME280;11728;50.624;6.014;2023-04-04T16:16:53;99068.22;;;13.20;32.26
23118;BME280;11728;50.624;6.014;2023-04-04T16:21:54;99059.44;;;13.18;31.32
23118;BME280;11728;50.624;6.014;2023-04-04T16:26:54;99048.06;;;13.12;31.52
23118;BME280;11728;50.624;6.014;2023-04-04T16:31:55;99048.59;;;12.85;31.66
23118;BME280;11728;50.624;6.014;2023-04-04T16:36:56;99041.19;;;12.57;32.43
23118;BME280;11728;50.624;6.014;2023-04-04T16:41:57;99046.38;;;12.64;32.54
23118;BME280;11728;50.624;6.014;2023-04-04T16:46:59;99044.00;;;12.49;32.13
23118;BME280;11728;50.624;6.014;2023-04-04T16:51:59;99041.22;;;12.07;32.88
23118;BME280;11728;50.624;6.014;2023-04-04T16:57:00;99049.16;;;12.06;33.09
23118;BME280;11728;50.624;6.014;2023-04-04T17:02:05;99051.63;;;12.18;33.23
23118;BME280;11728;50.624;6.014;2023-04-04T17:07:07;99047.97;;;11.72;34.09
23118;BME280;11728;50.624;6.014;2023-04-04T17:12:08;99049.16;;;11.47;35.13
23118;BME280;11728;50.624;6.014;2023-04-04T17:17:08;99047.75;;;11.24;35.59
23118;BME280;11728;50.624;6.014;2023-04-04T17:22:09;99040.84;;;11.12;36.10
23118;BME280;11728;50.624;6.014;2023-04-04T17:27:10;99044.59;;;10.95;36.23
23118;BME280;11728;50.624;6.014;2023-04-04T17:32:10;99047.31;;;10.87;36.41
23118;BME280;11728;50.624;6.014;2023-04-04T17:37:11;99047.72;;;10.55;36.87
23118;BME280;11728;50.624;6.014;2023-04-04T17:42:12;99048.81;;;10.36;37.77
23118;BME280;11728;50.624;6.014;2023-04-04T17:47:12;99048.06;;;10.20;37.80
23118;BME280;11728;50.624;6.014;2023-04-04T17:52:13;99046.44;;;10.04;38.17
23118;BME280;11728;50.624;6.014;2023-04-04T17:57:18;99044.81;;;9.87;38.23
23118;BME280;11728;50.624;6.014;2023-04-04T18:02:19;99039.69;;;9.66;38.76
23118;BME280;11728;50.624;6.014;2023-04-04T18:07:20;99037.09;;;9.60;38.69
23118;BME280;11728;50.624;6.014;2023-04-04T18:12:21;99035.44;;;9.47;38.85
23118;BME280;11728;50.624;6.014;2023-04-04T18:17:21;99036.38;;;9.39;39.06
23118;BME280;11728;50.624;6.014;2023-04-04T18:22:23;99044.34;;;9.28;39.34
23118;BME280;11728;50.624;6.014;2023-04-04T18:27:25;99044.38;;;9.19;39.66
23118;BME280;11728;50.624;6.014;2023-04-04T18:32:26;99042.63;;;9.17;39.80
23118;BME280;11728;50.624;6.014;2023-04-04T18:37:27;99043.63;;;9.00;39.92
23118;BME280;11728;50.624;6.014;2023-04-04T18:42:28;99043.66;;;8.89;40.21
23118;BME280;11728;50.624;6.014;2023-04-04T18:47:28;99048.97;;;8.80;40.35
23118;BME280;11728;50.624;6.014;2023-04-04T18:52:28;99054.25;;;8.77;40.25
23118;BME280;11728;50.624;6.014;2023-04-04T18:57:29;99055.97;;;8.78;40.52
23118;BME280;11728;50.624;6.014;2023-04-04T19:02:29;99066.53;;;8.72;40.46
23118;BME280;11728;50.624;6.014;2023-04-04T19:07:34;99067.41;;;8.67;40.59
23118;BME280;11728;50.624;6.014;2023-04-04T19:12:35;99063.94;;;8.59;40.84
23118;BME280;11728;50.624;6.014;2023-04-04T19:17:37;99072.75;;;8.37;41.24
23118;BME280;11728;50.624;6.014;2023-04-04T19:22:38;99067.53;;;8.16;41.58
23118;BME280;11728;50.624;6.014;2023-04-04T19:27:38;99070.16;;;8.03;42.24
23118;BME280;11728;50.624;6.014;2023-04-04T19:32:39;99068.38;;;7.85;42.29
23118;BME280;11728;50.624;6.014;2023-04-04T19:37:39;99070.13;;;7.61;43.15
23118;BME280;11728;50.624;6.014;2023-04-04T19:42:40;99083.25;;;7.48;43.81
23118;BME280;11728;50.624;6.014;2023-04-04T19:47:40;99095.47;;;7.31;44.20
23118;BME280;11728;50.624;6.014;2023-04-04T19:52:41;99088.41;;;7.16;44.88
23118;BME280;11728;50.624;6.014;2023-04-04T19:57:41;99090.94;;;6.95;45.60
23118;BME280;11728;50.624;6.014;2023-04-04T20:02:48;99089.06;;;6.69;46.46
23118;BME280;11728;50.624;6.014;2023-04-04T20:07:48;99095.94;;;6.45;47.73
23118;BME280;11728;50.624;6.014;2023-04-04T20:12:49;99093.19;;;6.22;48.26
23118;BME280;11728;50.624;6.014;2023-04-04T20:17:49;99094.78;;;6.06;48.98
23118;BME280;11728;50.624;6.014;2023-04-04T20:22:50;99106.00;;;5.90;49.46
23118;BME280;11728;50.624;6.014;2023-04-04T20:27:50;99110.19;;;5.71;50.37
23118;BME280;11728;50.624;6.014;2023-04-04T20:32:52;99110.00;;;5.52;51.22
23118;BME280;11728;50.624;6.014;2023-04-04T20:37:52;99108.16;;;5.45;51.11
23118;BME280;11728;50.624;6.014;2023-04-04T20:42:53;99099.19;;;5.22;52.35
23118;BME280;11728;50.624;6.014;2023-04-04T20:47:54;99100.72;;;5.05;52.93
23118;BME280;11728;50.624;6.014;2023-04-04T20:53:01;99106.69;;;4.92;53.52
23118;BME280;11728;50.624;6.014;2023-04-04T20:58:19;99109.09;;;4.77;54.35
23118;BME280;11728;50.624;6.014;2023-04-04T21:03:30;99103.66;;;4.59;54.88
23118;BME280;11728;50.624;6.014;2023-04-04T21:08:56;99093.75;;;4.38;56.01
23118;BME280;11728;50.624;6.014;2023-04-04T21:13:57;99096.16;;;4.23;56.25
23118;BME280;11728;50.624;6.014;2023-04-04T21:18:59;99102.94;;;4.12;56.48
23118;BME280;11728;50.624;6.014;2023-04-04T21:24:00;99105.28;;;3.94;57.37
23118;BME280;11728;50.624;6.014;2023-04-04T21:29:11;99093.72;;;3.80;57.71
23118;BME280;11728;50.624;6.014;2023-04-04T21:34:17;99089.13;;;3.64;58.17
23118;BME280;11728;50.624;6.014;2023-04-04T21:44:23;99087.72;;;3.35;58.36
23118;BME280;11728;50.624;6.014;2023-04-04T21:49:25;99084.78;;;3.19;58.94
23118;BME280;11728;50.624;6.014;2023-04-04T21:54:25;99080.22;;;3.07;60.10
23118;BME280;11728;50.624;6.014;2023-04-04T21:59:25;99084.25;;;2.91;60.66
23118;BME280;11728;50.624;6.014;2023-04-04T22:04:26;99085.09;;;2.90;60.77
23118;BME280;11728;50.624;6.014;2023-04-04T22:09:26;99087.72;;;2.91;59.43
23118;BME280;11728;50.624;6.014;2023-04-04T22:14:28;99082.69;;;2.99;59.16
23118;BME280;11728;50.624;6.014;2023-04-04T22:19:29;99074.84;;;2.99;58.79
23118;BME280;11728;50.624;6.014;2023-04-04T22:24:41;99069.56;;;2.96;59.53
23118;BME280;11728;50.624;6.014;2023-04-04T22:29:42;99067.91;;;3.01;59.01
23118;BME280;11728;50.624;6.014;2023-04-04T22:34:42;99053.31;;;3.10;59.32
23118;BME280;11728;50.624;6.014;2023-04-04T22:39:42;99047.97;;;3.04;59.28
23118;BME280;11728;50.624;6.014;2023-04-04T22:44:43;99045.47;;;3.08;58.66
23118;BME280;11728;50.624;6.014;2023-04-04T22:49:44;99038.34;;;2.99;59.29
23118;BME280;11728;50.624;6.014;2023-04-04T22:54:47;99051.09;;;2.85;60.17
23118;BME280;11728;50.624;6.014;2023-04-04T22:59:47;99044.78;;;2.74;60.71
23118;BME280;11728;50.624;6.014;2023-04-04T23:04:48;99038.63;;;2.69;60.97
23118;BME280;11728;50.624;6.014;2023-04-04T23:09:48;99028.72;;;2.53;61.96
23118;BME280;11728;50.624;6.014;2023-04-04T23:14:48;99037.97;;;2.38;62.74
23118;BME280;11728;50.624;6.014;2023-04-04T23:19:49;99034.22;;;2.24;63.18
23118;BME280;11728;50.624;6.014;2023-04-04T23:24:50;99016.53;;;2.11;63.59
23118;BME280;11728;50.624;6.014;2023-04-04T23:29:50;99024.16;;;2.02;64.67
23118;BME280;11728;50.624;6.014;2023-04-04T23:34:50;99018.97;;;2.02;64.66
23118;BME280;11728;50.624;6.014;2023-04-04T23:39:51;99013.69;;;1.99;64.31
23118;BME280;11728;50.624;6.014;2023-04-04T23:44:51;99014.38;;;1.91;64.76
23118;BME280;11728;50.624;6.014;2023-04-04T23:49:51;99008.13;;;1.84;64.63
23118;BME280;11728;50.624;6.014;2023-04-04T23:54:52;99008.97;;;1.83;65.19
23118;BME280;11728;50.624;6.014;2023-04-04T23:59:52;99003.78;;;1.85;64.05
